sensor_id;sensor_type;location;lat;lon;timestamp;temperature;humidity
29403;DHT22;16382;59.942;30.472;2022-12-04T00:00:33;-3.20;99.90
29403;DHT22;16382;59.942;30.472;2022-12-04T00:03:02;-3.10;99.90
29403;DHT22;16382;59.942;30.472;2022-12-04T00:05:29;-3.10;99.90
29403;DHT22;16382;59.942;30.472;2022-12-04T00:07:56;-3.10;99.90
29403;DHT22;16382;59.942;30.472;2022-12-04T00:10:24;-3.10;99.90
29403;DHT22;16382;59.942;30.472;2022-12-04T00:12:51;-3.10;99.90
29403;DHT22;16382;59.942;30.472;2022-12-04T00:15:19;-3.10;99.90
29403;DHT22;16382;59.942;30.472;2022-12-04T00:17:46;-3.10;99.90
29403;DHT22;16382;59.942;30.472;2022-12-04T00:20:16;-3.10;99.90
29403;DHT22;16382;59.942;30.472;2022-12-04T00:22:43;-3.10;99.90
29403;DHT22;16382;59.942;30.472;2022-12-04T00:25:11;-3.00;99.90
29403;DHT22;16382;59.942;30.472;2022-12-04T00:27:38;-3.00;99.90
29403;DHT22;16382;59.942;30.472;2022-12-04T00:30:07;-3.00;99.90
29403;DHT22;16382;59.942;30.472;2022-12-04T00:32:35;-3.00;99.90
29403;DHT22;16382;59.942;30.472;2022-12-04T00:35:03;-3.00;99.90
29403;DHT22;16382;59.942;30.472;2022-12-04T00:37:32;-3.00;99.90
29403;DHT22;16382;59.942;30.472;2022-12-04T00:40:00;-3.00;99.90
29403;DHT22;16382;59.942;30.472;2022-12-04T00:42:29;-3.00;99.90
29403;DHT22;16382;59.942;30.472;2022-12-04T00:44:56;-3.00;99.90
29403;DHT22;16382;59.942;30.472;2022-12-04T00:47:24;-3.10;99.90
29403;DHT22;16382;59.942;30.472;2022-12-04T00:49:52;-3.00;99.90
29403;DHT22;16382;59.942;30.472;2022-12-04T00:52:19;-3.00;99.90
29403;DHT22;16382;59.942;30.472;2022-12-04T00:54:48;-3.00;99.90
29403;DHT22;16382;59.942;30.472;2022-12-04T00:57:16;-3.10;99.90
29403;DHT22;16382;59.942;30.472;2022-12-04T00:59:43;-3.10;99.90
29403;DHT22;16382;59.942;30.472;2022-12-04T01:02:10;-3.10;99.90
29403;DHT22;16382;59.942;30.472;2022-12-04T01:04:38;-3.10;99.90
29403;DHT22;16382;59.942;30.472;2022-12-04T01:07:05;-3.10;99.90
29403;DHT22;16382;59.942;30.472;2022-12-04T01:09:33;-3.10;99.90
29403;DHT22;16382;59.942;30.472;2022-12-04T01:12:01;-3.10;99.90
29403;DHT22;16382;59.942;30.472;2022-12-04T01:14:29;-3.20;99.90
29403;DHT22;16382;59.942;30.472;2022-12-04T01:16:57;-3.10;99.90
29403;DHT22;16382;59.942;30.472;2022-12-04T01:19:24;-3.10;99.90
29403;DHT22;16382;59.942;30.472;2022-12-04T01:21:52;-3.10;99.90
29403;DHT22;16382;59.942;30.472;2022-12-04T01:24:19;-3.20;99.90
29403;DHT22;16382;59.942;30.472;2022-12-04T01:26:47;-3.30;99.90
29403;DHT22;16382;59.942;30.472;2022-12-04T01:29:15;-3.30;99.90
29403;DHT22;16382;59.942;30.472;2022-12-04T01:31:43;-3.30;99.90
29403;DHT22;16382;59.942;30.472;2022-12-04T01:34:10;-3.30;99.90
29403;DHT22;16382;59.942;30.472;2022-12-04T01:36:38;-3.30;99.90
29403;DHT22;16382;59.942;30.472;2022-12-04T01:39:05;-3.40;99.90
29403;DHT22;16382;59.942;30.472;2022-12-04T01:41:33;-3.40;99.90
29403;DHT22;16382;59.942;30.472;2022-12-04T01:44:12;-3.40;99.90
29403;DHT22;16382;59.942;30.472;2022-12-04T01:46:43;-3.40;99.90
29403;DHT22;16382;59.942;30.472;2022-12-04T01:49:14;-3.40;99.90
29403;DHT22;16382;59.942;30.472;2022-12-04T01:51:47;-3.40;99.90
29403;DHT22;16382;59.942;30.472;2022-12-04T01:54:19;-3.40;99.90
29403;DHT22;16382;59.942;30.472;2022-12-04T01:56:57;-3.40;99.90
29403;DHT22;16382;59.942;30.472;2022-12-04T01:59:32;-3.40;99.90
29403;DHT22;16382;59.942;30.472;2022-12-04T02:02:04;-3.50;99.90
29403;DHT22;16382;59.942;30.472;2022-12-04T02:04:34;-3.50;99.90
29403;DHT22;16382;59.942;30.472;2022-12-04T02:07:03;-3.40;99.90
29403;DHT22;16382;59.942;30.472;2022-12-04T02:09:31;-3.40;99.90
29403;DHT22;16382;59.942;30.472;2022-12-04T02:12:05;-3.40;99.90
29403;DHT22;16382;59.942;30.472;2022-12-04T02:14:42;-3.40;99.90
29403;DHT22;16382;59.942;30.472;2022-12-04T02:17:19;-3.50;99.90
29403;DHT22;16382;59.942;30.472;2022-12-04T02:20:13;-3.40;99.90
29403;DHT22;16382;59.942;30.472;2022-12-04T02:22:56;-3.40;99.90
29403;DHT22;16382;59.942;30.472;2022-12-04T02:25:37;-3.50;99.90
29403;DHT22;16382;59.942;30.472;2022-12-04T02:28:18;-3.60;99.90
29403;DHT22;16382;59.942;30.472;2022-12-04T02:30:50;-3.60;99.90
29403;DHT22;16382;59.942;30.472;2022-12-04T02:33:23;-3.60;99.90
29403;DHT22;16382;59.942;30.472;2022-12-04T02:35:55;-3.50;99.90
29403;DHT22;16382;59.942;30.472;2022-12-04T02:38:32;-3.50;99.90
29403;DHT22;16382;59.942;30.472;2022-12-04T02:41:05;-3.50;99.90
29403;DHT22;16382;59.942;30.472;2022-12-04T02:43:40;-3.50;99.90
29403;DHT22;16382;59.942;30.472;2022-12-04T02:46:13;-3.50;99.90
29403;DHT22;16382;59.942;30.472;2022-12-04T02:48:45;-3.50;99.90
29403;DHT22;16382;59.942;30.472;2022-12-04T02:51:18;-3.60;99.90
29403;DHT22;16382;59.942;30.472;2022-12-04T02:53:50;-3.60;99.90
29403;DHT22;16382;59.942;30.472;2022-12-04T02:56:23;-3.60;99.90
29403;DHT22;16382;59.942;30.472;2022-12-04T02:58:54;-3.60;99.90
29403;DHT22;16382;59.942;30.472;2022-12-04T03:01:27;-3.60;99.90
29403;DHT22;16382;59.942;30.472;2022-12-04T03:03:59;-3.60;99.90
29403;DHT22;16382;59.942;30.472;2022-12-04T03:06:33;-3.60;99.90
29403;DHT22;16382;59.942;30.472;2022-12-04T03:09:04;-3.60;99.90
29403;DHT22;16382;59.942;30.472;2022-12-04T03:11:34;-3.60;99.90
29403;DHT22;16382;59.942;30.472;2022-12-04T03:14:09;-3.60;99.90
29403;DHT22;16382;59.942;30.472;2022-12-04T03:16:40;-3.60;99.90
29403;DHT22;16382;59.942;30.472;2022-12-04T03:19:11;-3.60;99.90
29403;DHT22;16382;59.942;30.472;2022-12-04T03:21:47;-3.60;99.90
29403;DHT22;16382;59.942;30.472;2022-12-04T03:24:21;-3.60;99.90
29403;DHT22;16382;59.942;30.472;2022-12-04T03:26:55;-3.60;99.90
29403;DHT22;16382;59.942;30.472;2022-12-04T03:29:30;-3.60;99.90
29403;DHT22;16382;59.942;30.472;2022-12-04T03:32:06;-3.50;99.90
29403;DHT22;16382;59.942;30.472;2022-12-04T03:34:39;-3.50;99.90
29403;DHT22;16382;59.942;30.472;2022-12-04T03:37:13;-3.50;99.90
29403;DHT22;16382;59.942;30.472;2022-12-04T03:39:54;-3.60;99.90
29403;DHT22;16382;59.942;30.472;2022-12-04T03:42:26;-3.60;99.90
29403;DHT22;16382;59.942;30.472;2022-12-04T03:45:01;-3.60;99.90
29403;DHT22;16382;59.942;30.472;2022-12-04T03:47:34;-3.70;99.90
29403;DHT22;16382;59.942;30.472;2022-12-04T03:50:09;-3.70;99.90
29403;DHT22;16382;59.942;30.472;2022-12-04T03:52:49;-3.70;99.90
29403;DHT22;16382;59.942;30.472;2022-12-04T03:55:23;-3.70;99.90
29403;DHT22;16382;59.942;30.472;2022-12-04T03:57:57;-3.70;99.90
29403;DHT22;16382;59.942;30.472;2022-12-04T04:00:32;-3.80;99.90
29403;DHT22;16382;59.942;30.472;2022-12-04T04:03:08;-3.70;99.90
29403;DHT22;16382;59.942;30.472;2022-12-04T04:05:41;-3.70;99.90
29403;DHT22;16382;59.942;30.472;2022-12-04T04:08:14;-3.70;99.90
29403;DHT22;16382;59.942;30.472;2022-12-04T04:10:58;-3.80;99.90
29403;DHT22;16382;59.942;30.472;2022-12-04T04:13:32;-3.80;99.90
29403;DHT22;16382;59.942;30.472;2022-12-04T04:16:24;-3.80;99.90
29403;DHT22;16382;59.942;30.472;2022-12-04T04:19:13;-3.80;99.90
29403;DHT22;16382;59.942;30.472;2022-12-04T04:22:02;-3.90;99.90
29403;DHT22;16382;59.942;30.472;2022-12-04T04:24:52;-3.90;99.90
29403;DHT22;16382;59.942;30.472;2022-12-04T04:27:22;-3.90;99.90
29403;DHT22;16382;59.942;30.472;2022-12-04T04:29:50;-3.90;99.90
29403;DHT22;16382;59.942;30.472;2022-12-04T04:32:24;-4.00;99.90
29403;DHT22;16382;59.942;30.472;2022-12-04T04:35:04;-4.00;99.90
29403;DHT22;16382;59.942;30.472;2022-12-04T04:37:39;-3.90;99.90
29403;DHT22;16382;59.942;30.472;2022-12-04T04:40:19;-3.90;99.90
29403;DHT22;16382;59.942;30.472;2022-12-04T04:42:55;-3.90;99.90
29403;DHT22;16382;59.942;30.472;2022-12-04T04:45:28;-3.90;99.90
29403;DHT22;16382;59.942;30.472;2022-12-04T04:48:02;-3.90;99.90
29403;DHT22;16382;59.942;30.472;2022-12-04T04:50:33;-3.90;99.90
29403;DHT22;16382;59.942;30.472;2022-12-04T04:53:03;-3.90;99.90
29403;DHT22;16382;59.942;30.472;2022-12-04T04:55:33;-3.80;99.90
29403;DHT22;16382;59.942;30.472;2022-12-04T04:58:08;-3.80;99.90
29403;DHT22;16382;59.942;30.472;2022-12-04T05:00:37;-3.80;99.90
29403;DHT22;16382;59.942;30.472;2022-12-04T05:03:06;-3.80;99.90
29403;DHT22;16382;59.942;30.472;2022-12-04T05:05:34;-3.70;99.90
29403;DHT22;16382;59.942;30.472;2022-12-04T05:08:01;-3.80;99.90
29403;DHT22;16382;59.942;30.472;2022-12-04T05:10:29;-3.70;99.90
29403;DHT22;16382;59.942;30.472;2022-12-04T05:12:56;-3.70;99.90
29403;DHT22;16382;59.942;30.472;2022-12-04T05:15:24;-3.70;99.90
29403;DHT22;16382;59.942;30.472;2022-12-04T05:17:51;-3.70;99.90
29403;DHT22;16382;59.942;30.472;2022-12-04T05:20:20;-3.70;99.90
29403;DHT22;16382;59.942;30.472;2022-12-04T05:22:47;-3.70;99.90
29403;DHT22;16382;59.942;30.472;2022-12-04T05:25:15;-3.70;99.90
29403;DHT22;16382;59.942;30.472;2022-12-04T05:27:42;-3.70;99.90
29403;DHT22;16382;59.942;30.472;2022-12-04T05:30:11;-3.70;99.90
29403;DHT22;16382;59.942;30.472;2022-12-04T05:32:38;-3.80;99.90
29403;DHT22;16382;59.942;30.472;2022-12-04T05:35:06;-3.80;99.90
29403;DHT22;16382;59.942;30.472;2022-12-04T05:37:37;-3.70;99.90
29403;DHT22;16382;59.942;30.472;2022-12-04T05:40:06;-3.80;99.90
29403;DHT22;16382;59.942;30.472;2022-12-04T05:42:34;-3.80;99.90
29403;DHT22;16382;59.942;30.472;2022-12-04T05:45:01;-3.80;99.90
29403;DHT22;16382;59.942;30.472;2022-12-04T05:47:29;-3.80;99.90
29403;DHT22;16382;59.942;30.472;2022-12-04T05:49:57;-3.80;99.90
29403;DHT22;16382;59.942;30.472;2022-12-04T05:52:24;-3.70;99.90
29403;DHT22;16382;59.942;30.472;2022-12-04T05:54:53;-3.70;99.90
29403;DHT22;16382;59.942;30.472;2022-12-04T05:57:21;-3.80;99.90
29403;DHT22;16382;59.942;30.472;2022-12-04T05:59:49;-3.80;99.90
29403;DHT22;16382;59.942;30.472;2022-12-04T06:02:17;-3.80;99.90
29403;DHT22;16382;59.942;30.472;2022-12-04T06:04:48;-3.80;99.90
29403;DHT22;16382;59.942;30.472;2022-12-04T06:07:15;-3.80;99.90
29403;DHT22;16382;59.942;30.472;2022-12-04T06:09:43;-3.80;99.90
29403;DHT22;16382;59.942;30.472;2022-12-04T06:12:13;-3.80;99.90
29403;DHT22;16382;59.942;30.472;2022-12-04T06:14:41;-3.80;99.90
29403;DHT22;16382;59.942;30.472;2022-12-04T06:17:08;-3.80;99.90
29403;DHT22;16382;59.942;30.472;2022-12-04T06:19:36;-3.70;99.90
29403;DHT22;16382;59.942;30.472;2022-12-04T06:22:03;-3.70;99.90
29403;DHT22;16382;59.942;30.472;2022-12-04T06:24:30;-3.60;99.90
29403;DHT22;16382;59.942;30.472;2022-12-04T06:26:59;-3.70;99.90
29403;DHT22;16382;59.942;30.472;2022-12-04T06:29:27;-3.70;99.90
29403;DHT22;16382;59.942;30.472;2022-12-04T06:31:55;-3.80;99.90
29403;DHT22;16382;59.942;30.472;2022-12-04T06:34:25;-3.80;99.90
29403;DHT22;16382;59.942;30.472;2022-12-04T06:36:53;-3.80;99.90
29403;DHT22;16382;59.942;30.472;2022-12-04T06:39:21;-3.80;99.90
29403;DHT22;16382;59.942;30.472;2022-12-04T06:41:49;-3.80;99.90
29403;DHT22;16382;59.942;30.472;2022-12-04T06:44:17;-3.80;99.90
29403;DHT22;16382;59.942;30.472;2022-12-04T06:46:46;-3.70;99.90
29403;DHT22;16382;59.942;30.472;2022-12-04T06:49:15;-3.70;99.90
29403;DHT22;16382;59.942;30.472;2022-12-04T06:51:47;-3.70;99.90
29403;DHT22;16382;59.942;30.472;2022-12-04T06:54:15;-3.70;99.90
29403;DHT22;16382;59.942;30.472;2022-12-04T06:56:42;-3.80;99.90
29403;DHT22;16382;59.942;30.472;2022-12-04T06:59:10;-3.70;99.90
29403;DHT22;16382;59.942;30.472;2022-12-04T07:01:38;-3.80;99.90
29403;DHT22;16382;59.942;30.472;2022-12-04T07:04:06;-3.80;99.90
29403;DHT22;16382;59.942;30.472;2022-12-04T07:06:36;-3.80;99.90
29403;DHT22;16382;59.942;30.472;2022-12-04T07:09:06;-3.80;99.90
29403;DHT22;16382;59.942;30.472;2022-12-04T07:11:36;-3.80;99.90
29403;DHT22;16382;59.942;30.472;2022-12-04T07:14:04;-3.80;99.90
29403;DHT22;16382;59.942;30.472;2022-12-04T07:16:32;-3.70;99.90
29403;DHT22;16382;59.942;30.472;2022-12-04T07:19:00;-3.70;99.90
29403;DHT22;16382;59.942;30.472;2022-12-04T07:21:33;-3.70;99.90
29403;DHT22;16382;59.942;30.472;2022-12-04T07:24:00;-3.70;99.90
29403;DHT22;16382;59.942;30.472;2022-12-04T07:26:29;-3.70;99.90
29403;DHT22;16382;59.942;30.472;2022-12-04T07:28:57;-3.60;99.90
29403;DHT22;16382;59.942;30.472;2022-12-04T07:31:27;-3.60;99.90
29403;DHT22;16382;59.942;30.472;2022-12-04T07:33:56;-3.60;99.90
29403;DHT22;16382;59.942;30.472;2022-12-04T07:36:25;-3.50;99.90
29403;DHT22;16382;59.942;30.472;2022-12-04T07:38:55;-3.50;99.90
29403;DHT22;16382;59.942;30.472;2022-12-04T07:41:24;-3.40;99.90
29403;DHT22;16382;59.942;30.472;2022-12-04T07:43:54;-3.50;99.90
29403;DHT22;16382;59.942;30.472;2022-12-04T07:46:24;-3.40;99.90
29403;DHT22;16382;59.942;30.472;2022-12-04T07:48:54;-3.50;99.90
29403;DHT22;16382;59.942;30.472;2022-12-04T07:51:23;-3.40;99.90
29403;DHT22;16382;59.942;30.472;2022-12-04T07:53:56;-3.50;99.90
29403;DHT22;16382;59.942;30.472;2022-12-04T07:56:27;-3.50;99.90
29403;DHT22;16382;59.942;30.472;2022-12-04T07:58:54;-3.40;99.90
29403;DHT22;16382;59.942;30.472;2022-12-04T08:01:25;-3.30;99.90
29403;DHT22;16382;59.942;30.472;2022-12-04T08:03:55;-3.30;99.90
29403;DHT22;16382;59.942;30.472;2022-12-04T08:06:25;-3.40;99.90
29403;DHT22;16382;59.942;30.472;2022-12-04T08:08:55;-3.40;99.90
29403;DHT22;16382;59.942;30.472;2022-12-04T08:11:24;-3.40;99.90
29403;DHT22;16382;59.942;30.472;2022-12-04T08:13:54;-3.40;99.90
29403;DHT22;16382;59.942;30.472;2022-12-04T08:16:21;-3.30;99.90
29403;DHT22;16382;59.942;30.472;2022-12-04T08:18:49;-3.30;99.90
29403;DHT22;16382;59.942;30.472;2022-12-04T08:21:20;-3.30;99.90
29403;DHT22;16382;59.942;30.472;2022-12-04T08:23:50;-3.30;99.90
29403;DHT22;16382;59.942;30.472;2022-12-04T08:26:22;-3.30;99.90
29403;DHT22;16382;59.942;30.472;2022-12-04T08:28:53;-3.20;99.90
29403;DHT22;16382;59.942;30.472;2022-12-04T08:31:25;-3.20;99.90
29403;DHT22;16382;59.942;30.472;2022-12-04T08:33:56;-3.20;99.90
29403;DHT22;16382;59.942;30.472;2022-12-04T08:36:25;-3.10;99.90
29403;DHT22;16382;59.942;30.472;2022-12-04T08:39:09;-3.10;99.90
29403;DHT22;16382;59.942;30.472;2022-12-04T08:42:11;-3.00;99.90
29403;DHT22;16382;59.942;30.472;2022-12-04T08:44:39;-3.00;99.90
29403;DHT22;16382;59.942;30.472;2022-12-04T08:47:06;-3.00;99.90
29403;DHT22;16382;59.942;30.472;2022-12-04T08:49:34;-3.00;99.90
29403;DHT22;16382;59.942;30.472;2022-12-04T08:52:02;-3.00;99.90
29403;DHT22;16382;59.942;30.472;2022-12-04T08:54:31;-3.00;99.90
29403;DHT22;16382;59.942;30.472;2022-12-04T08:56:58;-3.10;99.90
29403;DHT22;16382;59.942;30.472;2022-12-04T08:59:27;-3.20;99.90
29403;DHT22;16382;59.942;30.472;2022-12-04T09:01:55;-3.20;99.90
29403;DHT22;16382;59.942;30.472;2022-12-04T09:04:22;-3.30;99.90
29403;DHT22;16382;59.942;30.472;2022-12-04T09:06:49;-3.20;99.90
29403;DHT22;16382;59.942;30.472;2022-12-04T09:09:17;-3.10;99.90
29403;DHT22;16382;59.942;30.472;2022-12-04T09:11:44;-3.00;99.90
29403;DHT22;16382;59.942;30.472;2022-12-04T09:14:12;-3.00;99.90
29403;DHT22;16382;59.942;30.472;2022-12-04T09:16:41;-3.00;99.90
29403;DHT22;16382;59.942;30.472;2022-12-04T09:19:09;-3.00;99.90
29403;DHT22;16382;59.942;30.472;2022-12-04T09:21:36;-3.00;99.90
29403;DHT22;16382;59.942;30.472;2022-12-04T09:24:04;-3.10;99.90
29403;DHT22;16382;59.942;30.472;2022-12-04T09:26:32;-3.10;99.90
29403;DHT22;16382;59.942;30.472;2022-12-04T09:29:01;-3.10;99.90
29403;DHT22;16382;59.942;30.472;2022-12-04T09:31:30;-3.10;99.90
29403;DHT22;16382;59.942;30.472;2022-12-04T09:34:00;-3.10;99.90
29403;DHT22;16382;59.942;30.472;2022-12-04T09:36:28;-3.10;99.90
29403;DHT22;16382;59.942;30.472;2022-12-04T09:38:56;-3.10;99.90
29403;DHT22;16382;59.942;30.472;2022-12-04T09:44:40;-3.10;99.90
29403;DHT22;16382;59.942;30.472;2022-12-04T09:47:16;-3.10;99.90
29403;DHT22;16382;59.942;30.472;2022-12-04T09:49:49;-3.20;99.90
29403;DHT22;16382;59.942;30.472;2022-12-04T09:52:28;-3.20;99.90
29403;DHT22;16382;59.942;30.472;2022-12-04T09:55:04;-3.20;99.90
29403;DHT22;16382;59.942;30.472;2022-12-04T09:57:40;-3.10;99.90
29403;DHT22;16382;59.942;30.472;2022-12-04T10:00:13;-3.10;99.90
29403;DHT22;16382;59.942;30.472;2022-12-04T10:02:45;-3.10;99.90
29403;DHT22;16382;59.942;30.472;2022-12-04T10:05:20;-3.10;99.90
29403;DHT22;16382;59.942;30.472;2022-12-04T10:08:02;-3.10;99.90
29403;DHT22;16382;59.942;30.472;2022-12-04T10:10:37;-3.10;99.90
29403;DHT22;16382;59.942;30.472;2022-12-04T10:13:18;-3.20;99.90
29403;DHT22;16382;59.942;30.472;2022-12-04T10:16:00;-3.10;99.90
29403;DHT22;16382;59.942;30.472;2022-12-04T10:18:40;-3.20;99.90
29403;DHT22;16382;59.942;30.472;2022-12-04T10:21:24;-3.10;99.90
29403;DHT22;16382;59.942;30.472;2022-12-04T10:24:07;-3.10;99.90
29403;DHT22;16382;59.942;30.472;2022-12-04T10:26:44;-3.10;99.90
29403;DHT22;16382;59.942;30.472;2022-12-04T10:29:17;-3.10;99.90
29403;DHT22;16382;59.942;30.472;2022-12-04T10:31:52;-3.20;99.90
29403;DHT22;16382;59.942;30.472;2022-12-04T10:34:25;-3.20;99.90
29403;DHT22;16382;59.942;30.472;2022-12-04T10:36:59;-3.20;99.90
29403;DHT22;16382;59.942;30.472;2022-12-04T10:43:33;-3.20;99.90
29403;DHT22;16382;59.942;30.472;2022-12-04T10:46:05;-3.20;99.90
29403;DHT22;16382;59.942;30.472;2022-12-04T10:48:35;-3.30;99.90
29403;DHT22;16382;59.942;30.472;2022-12-04T10:51:08;-3.30;99.90
29403;DHT22;16382;59.942;30.472;2022-12-04T10:53:44;-3.20;99.90
29403;DHT22;16382;59.942;30.472;2022-12-04T10:56:15;-3.20;99.90
29403;DHT22;16382;59.942;30.472;2022-12-04T10:58:55;-3.20;99.90
29403;DHT22;16382;59.942;30.472;2022-12-04T11:01:24;-3.10;99.90
29403;DHT22;16382;59.942;30.472;2022-12-04T11:03:59;-3.10;99.90
29403;DHT22;16382;59.942;30.472;2022-12-04T11:06:28;-3.10;99.90
29403;DHT22;16382;59.942;30.472;2022-12-04T11:08:58;-3.10;99.90
29403;DHT22;16382;59.942;30.472;2022-12-04T11:11:29;-3.20;99.90
29403;DHT22;16382;59.942;30.472;2022-12-04T11:14:04;-3.20;99.90
29403;DHT22;16382;59.942;30.472;2022-12-04T11:16:36;-3.20;99.90
29403;DHT22;16382;59.942;30.472;2022-12-04T11:19:22;-3.10;99.90
29403;DHT22;16382;59.942;30.472;2022-12-04T11:21:52;-3.10;99.90
29403;DHT22;16382;59.942;30.472;2022-12-04T11:24:27;-3.10;99.90
29403;DHT22;16382;59.942;30.472;2022-12-04T11:26:57;-3.10;99.90
29403;DHT22;16382;59.942;30.472;2022-12-04T11:29:30;-3.10;99.90
29403;DHT22;16382;59.942;30.472;2022-12-04T11:31:59;-3.00;99.90
29403;DHT22;16382;59.942;30.472;2022-12-04T11:34:33;-3.00;99.90
29403;DHT22;16382;59.942;30.472;2022-12-04T11:37:02;-3.00;99.90
29403;DHT22;16382;59.942;30.472;2022-12-04T11:39:34;-3.00;99.90
29403;DHT22;16382;59.942;30.472;2022-12-04T11:42:13;-3.10;99.90
29403;DHT22;16382;59.942;30.472;2022-12-04T11:44:49;-3.10;99.90
29403;DHT22;16382;59.942;30.472;2022-12-04T11:47:19;-3.00;99.90
29403;DHT22;16382;59.942;30.472;2022-12-04T11:50:05;-3.10;99.90
29403;DHT22;16382;59.942;30.472;2022-12-04T11:52:53;-3.10;99.90
29403;DHT22;16382;59.942;30.472;2022-12-04T11:55:35;-3.00;99.90
29403;DHT22;16382;59.942;30.472;2022-12-04T11:58:25;-3.00;99.90
29403;DHT22;16382;59.942;30.472;2022-12-04T12:01:12;-3.10;99.90
29403;DHT22;16382;59.942;30.472;2022-12-04T12:04:06;-3.00;99.90
29403;DHT22;16382;59.942;30.472;2022-12-04T12:06:56;-3.00;99.90
29403;DHT22;16382;59.942;30.472;2022-12-04T12:09:35;-3.10;99.90
29403;DHT22;16382;59.942;30.472;2022-12-04T12:12:11;-3.00;99.90
29403;DHT22;16382;59.942;30.472;2022-12-04T12:14:45;-3.00;99.90
29403;DHT22;16382;59.942;30.472;2022-12-04T12:17:19;-3.00;99.90
29403;DHT22;16382;59.942;30.472;2022-12-04T12:20:12;-3.00;99.90
29403;DHT22;16382;59.942;30.472;2022-12-04T12:22:56;-3.00;99.90
29403;DHT22;16382;59.942;30.472;2022-12-04T12:25:37;-3.00;99.90
29403;DHT22;16382;59.942;30.472;2022-12-04T12:28:17;-3.00;99.90
29403;DHT22;16382;59.942;30.472;2022-12-04T12:31:04;-3.00;99.90
29403;DHT22;16382;59.942;30.472;2022-12-04T12:33:42;-3.10;99.90
29403;DHT22;16382;59.942;30.472;2022-12-04T12:36:13;-3.00;99.90
29403;DHT22;16382;59.942;30.472;2022-12-04T12:38:44;-3.00;99.90
29403;DHT22;16382;59.942;30.472;2022-12-04T12:41:17;-3.00;99.90
29403;DHT22;16382;59.942;30.472;2022-12-04T12:44:01;-3.00;99.90
29403;DHT22;16382;59.942;30.472;2022-12-04T12:46:34;-3.00;99.90
29403;DHT22;16382;59.942;30.472;2022-12-04T12:49:09;-3.00;99.90
29403;DHT22;16382;59.942;30.472;2022-12-04T12:51:46;-3.00;99.90
29403;DHT22;16382;59.942;30.472;2022-12-04T12:54:32;-3.00;99.90
29403;DHT22;16382;59.942;30.472;2022-12-04T12:57:10;-3.00;99.90
29403;DHT22;16382;59.942;30.472;2022-12-04T12:59:44;-3.00;99.90
29403;DHT22;16382;59.942;30.472;2022-12-04T13:02:22;-2.90;99.90
29403;DHT22;16382;59.942;30.472;2022-12-04T13:04:56;-2.90;99.90
29403;DHT22;16382;59.942;30.472;2022-12-04T13:07:36;-2.90;99.90
29403;DHT22;16382;59.942;30.472;2022-12-04T13:10:13;-2.80;99.90
29403;DHT22;16382;59.942;30.472;2022-12-04T13:12:45;-3.00;99.90
29403;DHT22;16382;59.942;30.472;2022-12-04T13:15:20;-3.00;99.90
29403;DHT22;16382;59.942;30.472;2022-12-04T13:17:52;-3.00;99.90
29403;DHT22;16382;59.942;30.472;2022-12-04T13:20:23;-3.10;99.90
29403;DHT22;16382;59.942;30.472;2022-12-04T13:23:09;-3.10;99.90
29403;DHT22;16382;59.942;30.472;2022-12-04T13:25:50;-3.10;99.90
29403;DHT22;16382;59.942;30.472;2022-12-04T13:28:33;-3.10;99.90
29403;DHT22;16382;59.942;30.472;2022-12-04T13:31:15;-3.10;99.90
29403;DHT22;16382;59.942;30.472;2022-12-04T13:37:20;-3.00;99.90
29403;DHT22;16382;59.942;30.472;2022-12-04T13:40:28;-3.00;99.90
29403;DHT22;16382;59.942;30.472;2022-12-04T13:43:24;-3.00;99.90
29403;DHT22;16382;59.942;30.472;2022-12-04T13:45:56;-3.00;99.90
29403;DHT22;16382;59.942;30.472;2022-12-04T13:48:29;-3.00;99.90
29403;DHT22;16382;59.942;30.472;2022-12-04T13:51:33;-3.00;99.90
29403;DHT22;16382;59.942;30.472;2022-12-04T13:54:20;-3.00;99.90
29403;DHT22;16382;59.942;30.472;2022-12-04T13:56:51;-2.90;99.90
29403;DHT22;16382;59.942;30.472;2022-12-04T13:59:23;-2.90;99.90
29403;DHT22;16382;59.942;30.472;2022-12-04T14:02:15;-2.90;99.90
29403;DHT22;16382;59.942;30.472;2022-12-04T14:04:57;-2.80;99.90
29403;DHT22;16382;59.942;30.472;2022-12-04T14:07:29;-2.90;99.90
29403;DHT22;16382;59.942;30.472;2022-12-04T14:09:59;-2.90;99.90
29403;DHT22;16382;59.942;30.472;2022-12-04T14:12:32;-2.90;99.90
29403;DHT22;16382;59.942;30.472;2022-12-04T14:15:03;-2.80;99.90
29403;DHT22;16382;59.942;30.472;2022-12-04T14:17:34;-2.80;99.90
29403;DHT22;16382;59.942;30.472;2022-12-04T14:20:06;-2.80;99.90
29403;DHT22;16382;59.942;30.472;2022-12-04T14:22:47;-2.80;99.90
29403;DHT22;16382;59.942;30.472;2022-12-04T14:25:23;-2.70;99.90
29403;DHT22;16382;59.942;30.472;2022-12-04T14:28:12;-2.80;99.90
29403;DHT22;16382;59.942;30.472;2022-12-04T14:30:42;-2.70;99.90
29403;DHT22;16382;59.942;30.472;2022-12-04T14:33:16;-2.70;99.90
29403;DHT22;16382;59.942;30.472;2022-12-04T14:35:50;-2.60;99.90
29403;DHT22;16382;59.942;30.472;2022-12-04T14:38:22;-2.60;99.90
29403;DHT22;16382;59.942;30.472;2022-12-04T14:40:53;-2.60;99.90
29403;DHT22;16382;59.942;30.472;2022-12-04T14:43:26;-2.60;99.90
29403;DHT22;16382;59.942;30.472;2022-12-04T14:45:59;-2.60;99.90
29403;DHT22;16382;59.942;30.472;2022-12-04T14:48:43;-2.60;99.90
29403;DHT22;16382;59.942;30.472;2022-12-04T14:51:23;-2.60;99.90
29403;DHT22;16382;59.942;30.472;2022-12-04T14:54:01;-2.60;99.90
29403;DHT22;16382;59.942;30.472;2022-12-04T14:56:43;-2.70;99.90
29403;DHT22;16382;59.942;30.472;2022-12-04T14:59:21;-2.70;99.90
29403;DHT22;16382;59.942;30.472;2022-12-04T15:01:50;-2.70;99.90
29403;DHT22;16382;59.942;30.472;2022-12-04T15:04:22;-2.80;99.90
29403;DHT22;16382;59.942;30.472;2022-12-04T15:06:53;-2.80;99.90
29403;DHT22;16382;59.942;30.472;2022-12-04T15:09:22;-2.80;99.90
29403;DHT22;16382;59.942;30.472;2022-12-04T15:12:15;-2.80;99.90
29403;DHT22;16382;59.942;30.472;2022-12-04T15:15:03;-2.80;99.90
29403;DHT22;16382;59.942;30.472;2022-12-04T15:17:37;-2.80;99.90
29403;DHT22;16382;59.942;30.472;2022-12-04T15:20:10;-2.70;99.90
29403;DHT22;16382;59.942;30.472;2022-12-04T15:22:42;-2.70;99.90
29403;DHT22;16382;59.942;30.472;2022-12-04T15:25:16;-2.70;99.90
29403;DHT22;16382;59.942;30.472;2022-12-04T15:27:46;-2.70;99.90
29403;DHT22;16382;59.942;30.472;2022-12-04T15:30:16;-2.70;99.90
29403;DHT22;16382;59.942;30.472;2022-12-04T15:32:50;-2.60;99.90
29403;DHT22;16382;59.942;30.472;2022-12-04T15:35:22;-2.60;99.90
29403;DHT22;16382;59.942;30.472;2022-12-04T15:37:56;-2.60;99.90
29403;DHT22;16382;59.942;30.472;2022-12-04T15:40:25;-2.60;99.90
29403;DHT22;16382;59.942;30.472;2022-12-04T15:43:11;-2.60;99.90
29403;DHT22;16382;59.942;30.472;2022-12-04T15:45:41;-2.70;99.90
29403;DHT22;16382;59.942;30.472;2022-12-04T15:48:09;-2.70;99.90
29403;DHT22;16382;59.942;30.472;2022-12-04T15:50:36;-2.70;99.90
29403;DHT22;16382;59.942;30.472;2022-12-04T15:53:14;-2.70;99.90
29403;DHT22;16382;59.942;30.472;2022-12-04T15:55:48;-2.70;99.90
29403;DHT22;16382;59.942;30.472;2022-12-04T15:58:20;-2.70;99.90
29403;DHT22;16382;59.942;30.472;2022-12-04T16:00:54;-2.70;99.90